IV ZIMOWY CROSS BOCIANA BIEG 10 KM

Organizator:
Stowarzyszenie Team Biegowy Szczecinek
Data:
2019-12-28
Miejsce:
Szczecinek
Dystans:
10 km
Zgłoszonych:
81
Wystartowało:
76
Nie ukończyło:
0
Ukończyło:
76
Na trasie:
0
Pełne wyniki :
Wyniki uproszczone:
Wyniki nieoficjalne !!!
Klasyfikacje w punktach pomiarowych: Start | Meta
Klasyfikacje wg kategorii: Wszyscy | K-OPEN | M-OPEN

Klasyfikacja wg czasów brutto.
MscZawodnikNumerKlubMiejscowośćKrajKategoriaMkatK/MCzas
netto
10km
Różn.Tempo
min/km
Tempo
km/h
     
1CERK Łukasz 17BIEGAJ Z CERKIEMSZCZECINEKM-OPEN1M 100:40:25.15 4:0214,8
2SZYŁO Michał 189BIEGAJ Z CERKIEMSZCZECINEKM-OPEN2M 200:40:38.00+00:00:124:0314,8
3GORSZKA Damian 33PARKRUN SZCZECINSZCZECINM-OPEN3M 300:41:21.00+00:00:554:0814,5
4SZACHO-GŁUCHOWICZ Ryszard 180SYPNIEWOM-OPEN4M 400:41:45.65+00:01:204:1014,4
5LESYK Rafał 85TEAM BIEGOWY SZCZECINEKPARSĘCKOM-OPEN5M 500:41:54.00+00:01:284:1114,3
6LASAK Konrad 82SZCZECINEKM-OPEN6M 600:42:22.25+00:01:574:1414,2
7JURJEWICZ Grzegorz 51SZCZECINEKM-OPEN7M 700:42:36.65+00:02:114:1514,1
8KOWALSKI Mirosław 67TEAM BIEGOWY SZCZECINEKSZCZECINEKM-OPEN8M 800:43:14.30+00:02:494:1913,9
9DREWCZYŃSKA Adrianna 22CHOJNICEK-OPEN1K 100:43:55.50+00:03:304:2313,7
10NOCEK Paweł 117SZCZECINEKM-OPEN9M 900:44:33.15+00:04:084:2713,5
11PIETRUSZKA Mikołaj 140TĘCZA RUNKOSZALINM-OPEN10M 1000:44:49.05+00:04:234:2813,4
12PIASKOWIAK Artur 135BORNE BIEGABORNE SULINOWOM-OPEN11M 1100:45:03.20+00:04:384:3013,3
13PIASZCZYŃSKI Maciej 137BIAŁY BÓRM-OPEN12M 1200:45:13.05+00:04:474:3113,3
14SOCHA Marcin 169NO TYRYSZCZECINEKM-OPEN13M 1300:45:33.85+00:05:084:3313,2
15DRABJEWSKI Paweł 21TKKFŚMIŁOWOM-OPEN14M 1400:45:57.55+00:05:324:3513,1
16MOROZ Marcin 110MOYITO NA MECIETARNOWO PODGÓRNEM-OPEN15M 1500:45:59.60+00:05:344:3513,0
17RUŻYŁO Szymon 159CZŁUCHÓWCZŁUCHÓWM-OPEN16M 1600:46:01.25+00:05:364:3613,0
18SZYPKOWSKI Marek 191DZIKIE WIEPSZE CHWIRAMCHWIRAMM-OPEN17M 1700:46:08.55+00:05:434:3613,0
19ZIOJŁA David 214BIEGAM BO LUBIĘ :-)POZNAŃM-OPEN18M 1800:46:29.45+00:06:044:3812,9
20SCHMIDT Dariusz 163SZCZECINEKM-OPEN19M 1900:47:07.45+00:06:424:4212,7
21WŁODARCZAK Łukasz 206SZCZECINEKM-OPEN20M 2000:47:18.65+00:06:534:4312,7
22KOCZWARA Joanna 62STRONG KOCZWARASZCZECINEKK-OPEN2K 200:47:22.15+00:06:574:4412,7
23JABŁOŃSKI Andrzej 44CZARNEM-OPEN21M 2100:47:36.05+00:07:104:4512,6
24FIŁONOWICZ Monika 27TEAM BIEGOWY SZCZECINEKSZCZECINEKK-OPEN3K 300:47:42.75+00:07:174:4612,6
25URBAŃSKI Tomasz 199ZAKŁAD KARNY CZARNEBIAŁOGARDM-OPEN22M 2200:47:59.70+00:07:344:4712,5
26JANKOWSKI Mariusz 47TEAM BIEGOWY SZCZECINEKSZCZECINEKM-OPEN23M 2300:48:03.80+00:07:384:4812,5
27SZURMIAK Kamil 187ŻANDARMERIA POZNAŃPOZNAŃM-OPEN24M 2400:48:13.05+00:07:474:4912,4
28SYNORADZKI Łukasz 220TRIPAKAPRZECHLEWOM-OPEN25M 2500:48:14.85+00:07:494:4912,4
29KUSIAK Bartłomiej 79SZCZECINEKM-OPEN26M 2600:48:26.30+00:08:014:5012,4
30KOWALCZYK Seweryn 66TEAM BIEGOWY SZCZECINEKSZCZECINEKM-OPEN27M 2700:48:38.40+00:08:134:5112,3
31MOSZCZYŃSKI Jarosław 112BOBOLICEBOBOLICEM-OPEN28M 2800:48:44.85+00:08:194:5212,3
32KUBIŚ Paweł 76RUNDORFINASZCZECINEKM-OPEN29M 2900:49:29.00+00:09:034:5612,1
33MAKSELON Anna 96SZCZECINEKK-OPEN4K 400:49:39.15+00:09:144:5712,1
34SZKOPEK Krzysztof 185SZCZECINEKM-OPEN30M 3000:49:49.75+00:09:244:5812,0
35KRUKOWSKA Magdalena 72SZWLADRZONOWOK-OPEN5K 500:50:03.10+00:09:375:0012,0
36MAKSELON Maciej 95TORPEDO SZCZECINEKSZCZECINEKM-OPEN31M 3100:50:05.35+00:09:405:0012,0
37LUDEWICZ Mateusz 87JASTROWIEM-OPEN32M 3200:50:05.45+00:09:405:0012,0
38ZARĘBA Anna 210SZCZECINEKK-OPEN6K 600:50:10.50+00:09:455:0112,0
39ZARĘBA Adam 211SZCZECINEKM-OPEN33M 3300:50:13.50+00:09:485:0111,9
40ZIOJŁA Zbigniew 215BIEGAM BO LUBIĘ :-)SZCZECINEKM-OPEN34M 3400:50:25.35+00:10:005:0211,9
41TYLMAN Piotr 195RUNDORFINACZAPLINEKM-OPEN35M 3500:50:27.55+00:10:025:0211,9
42DREWCZYŃSKI Wojciech 23CHOJNICEM-OPEN36M 3600:50:39.95+00:10:145:0311,8
43SZŁAPAK Dawid 186ŚLĘZAKTEAMWIERZCHOWOM-OPEN37M 3700:50:42.55+00:10:175:0411,8
44GRZYB Magdalena 35RUNDORFINA CZAPLINEKCZAPLINEKK-OPEN7K 700:50:47.30+00:10:225:0411,8
45OLEARCZYK Arkadiusz 120BOBOLICKIE BRACTWO BIEGOWEBOBOLICEM-OPEN38M 3800:50:49.20+00:10:245:0411,8
46URBANIAK Michał 198CHOJNICEM-OPEN39M 3900:50:50.45+00:10:255:0511,8
47HATALA Paweł 41CZARNEM-OPEN40M 4000:51:34.80+00:11:095:0911,6
48MARKIEWICZ Aleksandra 219POŁCZYN BIEGA POŁCZYN-ZDRÓJK-OPEN8K 800:51:44.25+00:11:195:1011,6
49ROLIK Ania 158SZCZECINEKK-OPEN9K 900:52:24.10+00:11:585:1411,5
50HARASIMOWICZ Michał 4012 BBSPSZCZECINEKM-OPEN41M 4100:52:49.15+00:12:245:1611,4
51PAŃCZYK Tomasz 126SZCZECINM-OPEN42M 4200:53:47.55+00:13:225:2211,2
52POLGUJ Piotr Roman 147PARKRUN SZCZECINEKSZCZECINEKM-OPEN43M 4300:54:12.25+00:13:475:2511,1
53TUBIELEWICZ Robert 194SZCZECINEKM-OPEN44M 4400:54:15.60+00:13:505:2511,1
54KIELAR Łukasz 58SŁAWNOM-OPEN45M 4500:54:27.25+00:14:025:2611,0
55PIANOWSKI Maciej 133SZCZECINEKSZCZECINEKM-OPEN46M 4600:54:32.15+00:14:075:2711,0
56KUSIAK Joanna 80SZCZECINEKK-OPEN10K 1000:55:15.35+00:14:505:3110,9
57USTJANOWSKA Katarzyna 200BIAŁAK-OPEN11K 1100:55:25.75+00:15:005:3210,8
58ŁUKOMSKA Anna 93NADLEŚNICTWO CZAPLINEKCZAPLINEKK-OPEN12K 1200:55:37.20+00:15:125:3310,8
59DRABJEWSKA Anna 20TKKF WODNIK WIĘCBORKŚMIŁOWOK-OPEN13K 1300:56:03.40+00:15:385:3610,7
59KONIEC Krzysztof 63WIĘCBORKM-OPEN47M 4700:56:03.40+00:15:385:3610,7
61PIEKARZEWICZ Tomasz 138BOBOLICKIE BRACTWO BIEGOWEBOBOLICEM-OPEN48M 4800:56:12.80+00:15:475:3710,7
62PIASZCZYŃSKA Magdalena 136BIAŁY BÓRK-OPEN14K 1400:56:56.35+00:16:315:4110,5
63URBANIAK Marcin 197TRZCIANKAM-OPEN49M 4900:58:02.85+00:17:375:4810,3
64URBANIAK Anna 196TRZCIANKAK-OPEN15K 1500:58:03.80+00:17:385:4810,3
65ŁUKOMSKI Łukasz 94NADLEŚNICTWO CZAPLINEKCZAPLINEKM-OPEN50M 5000:58:26.65+00:18:015:5010,3
66SZABAŁOWSKI Marek 225SZCZECINEKM-OPEN51M 5101:00:27.50+00:20:026:029,9
67MATYSEK Ireneusz 99KOMANDOS WAŁECKIWAŁCZM-OPEN52M 5201:01:06.80+00:20:416:069,8
68ANDERMAN Piotr 1SZCZECINEKM-OPEN53M 5301:01:37.15+00:21:126:099,7
69MĄDRZYK Magda 101NIESIŁOWOK-OPEN16K 1601:02:07.65+00:21:426:129,7
70MIKITA Rafał 105OKONEKM-OPEN54M 5401:05:53.25+00:25:286:359,1
71OSIŃSKA Sylwia 121OSIŃSCY TEAMSKÓRKAK-OPEN17K 1701:06:16.55+00:25:516:379,1
72OSIŃSKI Marcin 122OSIŃSCY TEAMSKÓRKAM-OPEN55M 5501:06:16.95+00:25:516:379,1
73BORKOWSKA Alicja 9ZŁOCIENIECK-OPEN18K 1801:06:21.55+00:25:566:389,0
74KSIĄŻEK Teresa 741971.ZŁOCIENIECK-OPEN19K 1901:08:09.90+00:27:446:488,8
75ZIOJŁA Violetta 216BIEGAM BO LUBIĘ :-)SZCZECINEKK-OPEN20K 2001:09:08.00+00:28:426:548,7
76LECKI Seweryn 83TEAM BIEGOWY SZCZECINEKSZCZECINEKM-OPEN56M 5601:09:44.55+00:29:196:588,6
Znaleziono 76 wynik(ów)